Mount Clemens, MI

11:06 AM EDT del 24 Maggio 2015 (GMT -0400)
Apple Grove | | Change Station
CLOSE
Current Station
Stazione meteo personale
Location: New Baltimore, MI
Altitudine: 587 ft
Stazioni meteo nelle vicinanze

Alt. 587 ft 42.65 °N, 82.85 °W | Updated 8 minutes ago

Mostly Cloudy
Molto nuvoloso
76.6 °F
Sembra 78 °F
N
2.2
Vento Variabile Vento da SO

Oggi
Massima -- | Minima -- °F
--% Possibilità di precip.
Ieri
Massima -- | Minima -- °F
Precip. -- in
6:01 AM 8:55 PM
Luna crescente, 40% visible
Pressione 30.25 in
Visibilità 10.0 miglia
Nuvole Alcuni 14000 ft
Molto nuvoloso 25000 ft
Indice di calore 78 °F
Punto di rugiada 50 °F
Umidità 40%
Piovosità 0.00 in
Spessore del manto nevoso Non disponibile.
Raggi UV 4 fuori da 12
Polline 9.40 fuori da 12
Qualità dell'aria Non disponibile.
Flu Activity Sporadic
METAR KMTC 241455Z 25008KT 10SM FEW140 BKN250 25/10 A3022 RMK SLP243 T02490103 56005

More Conditions Fewer Conditions

Pressione 30.25 in
Visibilità 10.0 miglia
Nuvole Alcuni 14000 ft
Molto nuvoloso 25000 ft
Indice di calore 78 °F
Punto di rugiada 50 °F
Umidità 40%
Piovosità 0.00 in
Spessore del manto nevoso Non disponibile.
Raggi UV 4 fuori da 12
Polline 9.40 fuori da 12
Qualità dell'aria Non disponibile.
Flu Activity Sporadic
METAR KMTC 241455Z 25008KT 10SM FEW140 BKN250 25/10 A3022 RMK SLP243 T02490103 56005

More Conditions Fewer Conditions

10-Day Weather Forecast

Almanac

Astronomia

May. 24, 2015 Alba Tramonto
Ora attuale
Crepuscolo civile
Crepuscolo nautico
Crepuscolo astronomico
Luna
Estensione della luce visibile
Lunghezza del giorno
Tomorrow will be .
, % of the Moon is Illuminated

Gli estremi di oggi

State Highs State Lows

Community

WunderPhotos

Upload Photos

1,823,761 foto caricate!

WunderBlogs® & News

Nearby

Qualità dell'aria

  Qualità dell'aria Indice AQ Inquinante
Not available.

Profondità neve

Stazione Profondità Altitudine

Attività sismica

Città  Distanza Mag. Data & Ora
Minimo Magnitudo Mostrato è 2.5.

Temperature delle acque costiere

Località Temperatura

Stations

Stazioni meteo nelle vicinanze

Ubicazione della stazione Temp. Raffreddamento del vento Punto di rugiada Umidità Vento Precip. Alt. Aggiornato Tipo